Time;durP1;ratioP1;P1;durP2;ratioP2;P2;SDS_P1;SDS_P2;PMS_P1;PMS_P2;Temp;Humidity;BMP_temperature;BMP_pressure;BME280_temperature;BME280_humidity;BME280_pressure;Samples;Min_cycle;Max_cycle;Signal;HPM_P1;HPM_P2
2023/07/20 00:00:53;;;;;;;8.55;2.60;;;;;;;;;;5024365;28;20053;-76
2023/07/20 00:03:24;;;;;;;5.00;2.50;;;;;;;;;;5023229;28;20025;-76
2023/07/20 00:05:53;;;;;;;2.80;2.25;;;;;;;;;;5025604;28;20353;-76
2023/07/20 00:08:18;;;;;;;4.35;2.22;;;;;;;;;;5027512;28;20155;-76
2023/07/20 00:10:44;;;;;;;5.70;2.20;;;;;;;;;;5024562;28;20096;-76
2023/07/20 00:13:11;;;;;;;4.85;2.20;;;;;;;;;;5024652;28;20025;-76
2023/07/20 00:15:37;;;;;;;3.15;2.15;;;;;;;;;;5024034;28;20068;-76
2023/07/20 00:18:03;;;;;;;4.55;2.42;;;;;;;;;;5025021;28;20021;-76
2023/07/20 00:20:29;;;;;;;5.75;2.67;;;;;;;;;;5019356;28;20029;-76
2023/07/20 00:22:54;;;;;;;9.52;2.13;;;;;;;;;;5026161;28;20097;-76
2023/07/20 00:25:20;;;;;;;3.00;2.20;;;;;;;;;;5027412;28;20021;-76
2023/07/20 00:27:45;;;;;;;5.05;2.35;;;;;;;;;;5028022;28;20469;-76
2023/07/20 00:30:11;;;;;;;5.68;2.63;;;;;;;;;;5021404;28;20125;-78
2023/07/20 00:32:36;;;;;;;5.85;2.42;;;;;;;;;;5028205;28;20551;-76
2023/07/20 00:35:02;;;;;;;3.45;2.40;;;;;;;;;;5024082;28;20067;-76
2023/07/20 00:37:28;;;;;;;3.22;2.22;;;;;;;;;;5021366;28;20159;-78
2023/07/20 00:39:54;;;;;;;3.67;2.40;;;;;;;;;;5024140;28;20022;-76
2023/07/20 00:42:19;;;;;;;7.15;2.72;;;;;;;;;;5024516;28;20389;-76
2023/07/20 00:44:44;;;;;;;6.13;2.20;;;;;;;;;;5022550;28;20443;-76
2023/07/20 00:47:10;;;;;;;4.68;2.55;;;;;;;;;;5023524;28;20119;-76
2023/07/20 00:49:36;;;;;;;2.92;2.35;;;;;;;;;;5026795;28;20045;-76
2023/07/20 00:52:03;;;;;;;2.58;2.38;;;;;;;;;;5024541;28;20036;-76
2023/07/20 00:54:29;;;;;;;4.45;2.83;;;;;;;;;;5007336;28;20095;-76
2023/07/20 00:56:55;;;;;;;3.08;2.10;;;;;;;;;;5026165;28;20417;-76
2023/07/20 00:59:21;;;;;;;4.65;2.20;;;;;;;;;;5008889;28;20029;-76
2023/07/20 01:01:46;;;;;;;3.92;2.35;;;;;;;;;;5025917;28;20089;-76
2023/07/20 01:04:13;;;;;;;9.23;2.08;;;;;;;;;;5025289;28;20026;-76
2023/07/20 01:06:38;;;;;;;3.75;2.33;;;;;;;;;;5024781;28;20433;-76
2023/07/20 01:09:12;;;;;;;3.83;2.22;;;;;;;;;;5005151;28;20041;-76
2023/07/20 01:11:56;;;;;;;3.90;2.40;;;;;;;;;;5021639;28;20025;-76
2023/07/20 01:14:23;;;;;;;3.38;2.22;;;;;;;;;;5024033;28;20029;-76
2023/07/20 01:16:49;;;;;;;6.47;1.95;;;;;;;;;;5022702;28;20550;-76
2023/07/20 01:19:15;;;;;;;2.22;2.03;;;;;;;;;;5027671;28;20045;-76
2023/07/20 01:21:51;;;;;;;6.88;2.03;;;;;;;;;;5022322;28;20494;-76
2023/07/20 01:24:36;;;;;;;2.58;2.15;;;;;;;;;;5025375;28;20035;-76
2023/07/20 01:27:32;;;;;;;2.95;2.10;;;;;;;;;;5024366;28;20033;-76
2023/07/20 01:30:26;;;;;;;6.13;2.20;;;;;;;;;;5023560;28;20545;-76
2023/07/20 01:32:55;;;;;;;2.15;1.95;;;;;;;;;;5026420;28;20105;-76
2023/07/20 01:35:25;;;;;;;11.13;1.92;;;;;;;;;;5020895;28;20109;-76
2023/07/20 01:37:51;;;;;;;5.45;1.98;;;;;;;;;;5022791;28;20022;-76
2023/07/20 01:40:17;;;;;;;3.80;1.88;;;;;;;;;;5022207;28;20433;-76
2023/07/20 01:42:45;;;;;;;3.45;1.77;;;;;;;;;;5025153;28;20025;-76
2023/07/20 01:45:11;;;;;;;6.63;2.15;;;;;;;;;;5018810;28;20026;-76
2023/07/20 01:47:36;;;;;;;3.33;2.13;;;;;;;;;;5020553;28;20022;-76
2023/07/20 01:50:01;;;;;;;2.63;1.95;;;;;;;;;;5026190;28;20013;-76
2023/07/20 01:52:26;;;;;;;5.50;2.00;;;;;;;;;;5024581;28;20130;-76
2023/07/20 01:54:52;;;;;;;3.45;1.90;;;;;;;;;;5025430;28;20026;-76
2023/07/20 01:57:17;;;;;;;4.18;2.25;;;;;;;;;;5022615;28;20040;-76
2023/07/20 01:59:43;;;;;;;2.70;2.15;;;;;;;;;;5024204;28;20052;-76
2023/07/20 02:02:08;;;;;;;7.80;2.15;;;;;;;;;;5022079;28;20463;-76
2023/07/20 02:04:33;;;;;;;2.97;2.13;;;;;;;;;;5023747;28;20033;-76
2023/07/20 02:06:59;;;;;;;2.15;1.83;;;;;;;;;;5025680;28;20401;-76
2023/07/20 02:09:24;;;;;;;4.22;2.30;;;;;;;;;;5025817;28;20029;-76
2023/07/20 02:11:50;;;;;;;5.28;2.03;;;;;;;;;;5021403;28;20437;-76
2023/07/20 02:14:15;;;;;;;12.40;2.30;;;;;;;;;;5019444;28;20457;-76
2023/07/20 02:16:40;;;;;;;5.57;2.00;;;;;;;;;;5021057;28;20234;-76
2023/07/20 02:19:06;;;;;;;3.63;2.00;;;;;;;;;;5022321;28;20025;-76
2023/07/20 02:21:32;;;;;;;4.38;2.15;;;;;;;;;;5023088;28;20100;-76
2023/07/20 02:23:57;;;;;;;5.40;1.98;;;;;;;;;;5024756;28;20117;-76
2023/07/20 02:26:23;;;;;;;9.85;2.05;;;;;;;;;;5022439;28;20030;-76
2023/07/20 02:28:48;;;;;;;2.60;1.80;;;;;;;;;;5023308;28;20031;-76
2023/07/20 02:31:13;;;;;;;2.90;2.03;;;;;;;;;;5023173;28;20034;-76
2023/07/20 02:33:39;;;;;;;5.72;2.13;;;;;;;;;;5021694;28;20076;-76
2023/07/20 02:36:04;;;;;;;3.72;2.00;;;;;;;;;;5022477;28;20461;-76
2023/07/20 02:38:29;;;;;;;3.33;1.73;;;;;;;;;;5022633;28;20286;-76
2023/07/20 02:40:55;;;;;;;3.47;2.10;;;;;;;;;;5023201;28;20017;-76
2023/07/20 02:43:20;;;;;;;6.15;2.15;;;;;;;;;;5021068;28;20033;-76
2023/07/20 02:45:45;;;;;;;4.38;1.83;;;;;;;;;;5016073;28;20037;-76
2023/07/20 02:48:11;;;;;;;8.70;2.10;;;;;;;;;;5022284;28;20033;-76
2023/07/20 02:50:36;;;;;;;3.53;2.25;;;;;;;;;;5024182;28;20032;-76
2023/07/20 02:53:02;;;;;;;5.78;1.83;;;;;;;;;;5019262;28;20025;-77
2023/07/20 02:55:27;;;;;;;4.47;2.13;;;;;;;;;;5020379;28;20489;-76
2023/07/20 02:57:52;;;;;;;5.25;1.80;;;;;;;;;;5025264;28;20021;-77
2023/07/20 03:00:19;;;;;;;9.25;2.00;;;;;;;;;;5024251;28;20056;-77
2023/07/20 03:02:47;;;;;;;6.57;2.10;;;;;;;;;;5022089;28;20051;-78
2023/07/20 03:05:13;;;;;;;7.60;2.00;;;;;;;;;;5008896;28;20021;-78
2023/07/20 03:07:38;;;;;;;2.03;1.92;;;;;;;;;;5028344;28;20103;-79
2023/07/20 03:10:04;;;;;;;3.60;2.15;;;;;;;;;;5018603;28;20029;-79
2023/07/20 03:12:29;;;;;;;4.68;1.98;;;;;;;;;;5025187;28;20036;-79
2023/07/20 03:14:56;;;;;;;8.90;2.15;;;;;;;;;;5026133;28;20029;-80
2023/07/20 03:17:22;;;;;;;2.70;1.88;;;;;;;;;;5021957;28;20022;-79
2023/07/20 03:19:47;;;;;;;6.53;2.00;;;;;;;;;;5023874;28;20048;-79
2023/07/20 03:22:12;;;;;;;3.00;1.67;;;;;;;;;;5026966;28;20392;-79
2023/07/20 03:24:38;;;;;;;2.97;2.38;;;;;;;;;;5022525;28;20176;-79
2023/07/20 03:27:03;;;;;;;4.95;2.00;;;;;;;;;;5020360;28;20343;-79
2023/07/20 03:29:28;;;;;;;5.00;2.40;;;;;;;;;;5026041;28;20026;-79
2023/07/20 03:31:54;;;;;;;4.95;2.03;;;;;;;;;;5027488;28;20658;-78
2023/07/20 03:34:19;;;;;;;4.65;2.20;;;;;;;;;;5028386;28;20501;-79
2023/07/20 03:36:44;;;;;;;3.47;2.28;;;;;;;;;;5024052;28;20020;-78
2023/07/20 03:39:09;;;;;;;2.92;2.17;;;;;;;;;;5023589;28;20037;-78
2023/07/20 03:41:35;;;;;;;3.30;2.05;;;;;;;;;;5023304;28;20493;-78
2023/07/20 03:44:00;;;;;;;6.53;3.20;;;;;;;;;;5018360;28;20030;-79
2023/07/20 03:46:25;;;;;;;5.03;2.50;;;;;;;;;;5019704;28;20085;-78
2023/07/20 03:48:51;;;;;;;2.67;2.35;;;;;;;;;;5020324;28;20571;-77
2023/07/20 03:51:16;;;;;;;5.70;2.70;;;;;;;;;;5023301;28;20517;-78
2023/07/20 03:53:42;;;;;;;4.63;2.17;;;;;;;;;;5025067;28;20052;-78
2023/07/20 03:56:07;;;;;;;8.73;2.50;;;;;;;;;;5019819;28;20026;-78
2023/07/20 03:58:33;;;;;;;4.32;2.55;;;;;;;;;;5020536;28;20530;-79
2023/07/20 04:00:58;;;;;;;3.70;2.33;;;;;;;;;;5020545;28;20057;-78
2023/07/20 04:03:26;;;;;;;3.13;2.30;;;;;;;;;;5021387;28;20401;-80
2023/07/20 04:05:54;;;;;;;3.22;2.22;;;;;;;;;;5023324;28;20029;-79
2023/07/20 04:08:19;;;;;;;6.95;2.63;;;;;;;;;;5023196;28;20033;-79
2023/07/20 04:10:45;;;;;;;5.43;2.65;;;;;;;;;;5014198;28;20030;-79
2023/07/20 04:13:11;;;;;;;4.28;2.60;;;;;;;;;;5011449;28;20428;-78
2023/07/20 04:15:36;;;;;;;6.10;3.00;;;;;;;;;;4991558;28;20520;-78
2023/07/20 04:18:02;;;;;;;4.72;2.65;;;;;;;;;;5029119;28;20052;-79
2023/07/20 04:20:27;;;;;;;4.13;2.60;;;;;;;;;;5022000;28;20044;-78
2023/07/20 04:22:53;;;;;;;7.95;3.15;;;;;;;;;;5023020;28;20056;-79
2023/07/20 04:25:19;;;;;;;6.03;3.20;;;;;;;;;;5021969;28;20102;-78
2023/07/20 04:27:44;;;;;;;4.63;2.90;;;;;;;;;;5010710;28;20488;-79
2023/07/20 04:30:11;;;;;;;9.18;2.75;;;;;;;;;;5004351;28;20156;-78
2023/07/20 04:32:37;;;;;;;7.30;3.00;;;;;;;;;;5016730;28;20017;-77
2023/07/20 04:35:06;;;;;;;3.83;2.83;;;;;;;;;;5005046;28;20037;-78
2023/07/20 04:37:31;;;;;;;4.50;3.50;;;;;;;;;;5023204;28;20025;-78
2023/07/20 04:39:56;;;;;;;5.70;3.15;;;;;;;;;;5025900;28;20045;-78
2023/07/20 04:42:21;;;;;;;4.78;3.17;;;;;;;;;;5025788;28;20168;-78
2023/07/20 04:44:47;;;;;;;4.88;3.00;;;;;;;;;;5021107;28;20025;-77
2023/07/20 04:47:12;;;;;;;5.13;3.15;;;;;;;;;;5027351;28;20017;-77
2023/07/20 04:49:38;;;;;;;4.93;3.05;;;;;;;;;;5025628;28;20102;-77
2023/07/20 04:52:04;;;;;;;3.38;2.80;;;;;;;;;;5021217;28;20030;-77
2023/07/20 04:54:29;;;;;;;8.82;2.90;;;;;;;;;;5007709;28;20680;-77
2023/07/20 04:56:54;;;;;;;6.95;2.72;;;;;;;;;;5021221;28;20374;-77
2023/07/20 04:59:19;;;;;;;4.45;3.00;;;;;;;;;;5023296;28;20707;-78
2023/07/20 05:01:45;;;;;;;6.72;3.03;;;;;;;;;;5034433;28;20087;-77
2023/07/20 05:04:10;;;;;;;4.05;2.90;;;;;;;;;;5037294;28;20021;-80
2023/07/20 05:06:36;;;;;;;5.90;2.83;;;;;;;;;;5037771;28;20083;-77
2023/07/20 05:09:01;;;;;;;3.45;2.65;;;;;;;;;;5035111;28;20024;-79
2023/07/20 05:11:26;;;;;;;3.80;3.10;;;;;;;;;;5034552;28;20030;-78
2023/07/20 05:13:51;;;;;;;4.85;2.85;;;;;;;;;;5034448;28;20014;-76
2023/07/20 05:16:17;;;;;;;3.97;2.80;;;;;;;;;;5034432;28;20028;-78
2023/07/20 05:18:42;;;;;;;3.97;3.30;;;;;;;;;;5035150;28;20028;-78
2023/07/20 05:21:08;;;;;;;5.43;3.20;;;;;;;;;;5034325;28;20025;-77
2023/07/20 05:23:33;;;;;;;3.72;3.05;;;;;;;;;;5016815;28;20032;-78
2023/07/20 05:25:59;;;;;;;5.88;3.55;;;;;;;;;;5032232;28;20025;-78
2023/07/20 05:28:29;;;;;;;5.03;3.30;;;;;;;;;;5033883;28;20101;-76
2023/07/20 05:30:55;;;;;;;4.57;3.50;;;;;;;;;;5033584;28;20169;-77
2023/07/20 05:33:21;;;;;;;10.68;3.35;;;;;;;;;;5033763;28;20120;-78
2023/07/20 05:35:46;;;;;;;6.10;3.55;;;;;;;;;;5034164;28;20087;-77
2023/07/20 05:38:12;;;;;;;5.40;3.28;;;;;;;;;;5034634;28;20480;-78
2023/07/20 05:40:38;;;;;;;8.15;3.05;;;;;;;;;;5033774;28;20021;-77
2023/07/20 05:43:03;;;;;;;4.22;2.58;;;;;;;;;;5034111;28;20033;-78
2023/07/20 05:45:29;;;;;;;9.80;4.07;;;;;;;;;;5032350;28;20020;-76
2023/07/20 05:47:54;;;;;;;3.38;2.70;;;;;;;;;;5016196;28;20021;-76
2023/07/20 05:50:19;;;;;;;6.50;2.92;;;;;;;;;;5034006;28;20029;-78
2023/07/20 05:52:45;;;;;;;5.10;3.00;;;;;;;;;;5034002;28;20045;-78
2023/07/20 05:55:10;;;;;;;4.47;3.03;;;;;;;;;;5034115;28;20081;-78
2023/07/20 05:57:39;;;;;;;3.60;2.65;;;;;;;;;;5033596;28;20054;-76
2023/07/20 06:00:05;;;;;;;5.97;3.15;;;;;;;;;;5033693;28;20021;-78
2023/07/20 06:02:33;;;;;;;4.75;2.85;;;;;;;;;;5033809;28;20114;-78
2023/07/20 06:04:58;;;;;;;3.53;2.83;;;;;;;;;;5033142;28;20105;-76
2023/07/20 06:07:23;;;;;;;4.75;3.03;;;;;;;;;;5033202;28;20053;-75
2023/07/20 06:09:49;;;;;;;5.50;2.88;;;;;;;;;;5035503;28;20072;-76
2023/07/20 06:12:14;;;;;;;4.38;2.72;;;;;;;;;;5038883;28;20025;-75
2023/07/20 06:14:39;;;;;;;4.35;2.50;;;;;;;;;;5022059;28;20025;-76
2023/07/20 06:17:05;;;;;;;3.80;2.50;;;;;;;;;;5038559;28;20025;-76
2023/07/20 06:19:30;;;;;;;8.93;2.85;;;;;;;;;;5020931;28;20025;-77
2023/07/20 06:21:55;;;;;;;3.00;2.40;;;;;;;;;;5039378;28;20017;-77
2023/07/20 06:24:21;;;;;;;9.48;2.70;;;;;;;;;;5021025;28;20151;-78
2023/07/20 06:26:46;;;;;;;5.00;2.50;;;;;;;;;;5047552;28;20036;-77
2023/07/20 06:29:11;;;;;;;2.42;2.13;;;;;;;;;;5044604;28;20022;-78
2023/07/20 06:31:37;;;;;;;5.50;2.22;;;;;;;;;;5046848;28;20029;-77
2023/07/20 06:34:03;;;;;;;3.90;2.28;;;;;;;;;;5027507;28;20029;-76
2023/07/20 06:36:28;;;;;;;3.10;2.58;;;;;;;;;;5034940;28;20052;-77
2023/07/20 06:38:54;;;;;;;13.27;2.45;;;;;;;;;;5034711;28;20031;-76
2023/07/20 06:41:19;;;;;;;4.97;2.42;;;;;;;;;;5035949;28;20083;-79
2023/07/20 06:43:45;;;;;;;5.25;2.28;;;;;;;;;;5017384;28;20028;-78
2023/07/20 06:46:10;;;;;;;6.47;2.30;;;;;;;;;;5018011;28;20059;-79
2023/07/20 06:48:35;;;;;;;10.63;2.25;;;;;;;;;;5019174;28;20022;-77
2023/07/20 06:51:01;;;;;;;5.10;2.08;;;;;;;;;;5033979;28;20028;-77
2023/07/20 06:53:26;;;;;;;7.55;2.30;;;;;;;;;;5037174;28;20025;-77
2023/07/20 06:55:51;;;;;;;7.68;2.70;;;;;;;;;;5037353;28;20079;-78
2023/07/20 06:58:17;;;;;;;8.05;2.35;;;;;;;;;;5033896;28;20116;-78
2023/07/20 07:00:43;;;;;;;6.72;2.47;;;;;;;;;;5025420;28;20045;-78
2023/07/20 07:03:08;;;;;;;4.90;2.65;;;;;;;;;;5017782;28;20080;-77
2023/07/20 07:05:37;;;;;;;7.28;2.50;;;;;;;;;;5016350;28;20091;-79
2023/07/20 07:08:05;;;;;;;4.15;2.30;;;;;;;;;;5017171;28;20329;-79
2023/07/20 07:10:31;;;;;;;5.15;2.30;;;;;;;;;;5016897;28;20080;-77
2023/07/20 07:12:56;;;;;;;4.07;2.30;;;;;;;;;;5018603;28;20105;-76
2023/07/20 07:15:22;;;;;;;8.45;2.33;;;;;;;;;;5016579;28;20065;-75
2023/07/20 07:17:47;;;;;;;5.53;2.20;;;;;;;;;;5031886;28;20044;-78
2023/07/20 07:20:13;;;;;;;3.28;2.28;;;;;;;;;;5035291;28;20025;-79
2023/07/20 07:22:38;;;;;;;4.05;2.20;;;;;;;;;;5017206;28;20029;-79
2023/07/20 07:25:04;;;;;;;10.23;2.58;;;;;;;;;;5035354;28;20108;-79
2023/07/20 07:27:29;;;;;;;8.52;2.15;;;;;;;;;;5034426;28;20021;-79
2023/07/20 07:29:55;;;;;;;5.60;2.22;;;;;;;;;;5017764;28;20030;-79
2023/07/20 07:32:20;;;;;;;6.85;2.25;;;;;;;;;;5034495;28;20523;-78
2023/07/20 07:34:47;;;;;;;4.00;2.40;;;;;;;;;;5034438;28;20025;-79
2023/07/20 07:37:13;;;;;;;2.75;2.30;;;;;;;;;;5033521;28;20105;-78
2023/07/20 07:39:38;;;;;;;4.47;2.20;;;;;;;;;;5032123;28;20045;-79
2023/07/20 07:42:03;;;;;;;4.40;2.33;;;;;;;;;;5016392;28;20400;-79
2023/07/20 07:44:29;;;;;;;6.80;2.17;;;;;;;;;;5034250;28;20025;-79
2023/07/20 07:46:54;;;;;;;4.20;2.30;;;;;;;;;;5033321;28;20097;-78
2023/07/20 07:49:19;;;;;;;4.18;1.80;;;;;;;;;;5033920;28;20108;-79
2023/07/20 07:51:45;;;;;;;3.28;1.95;;;;;;;;;;5032538;28;20108;-79
2023/07/20 07:54:10;;;;;;;8.95;2.17;;;;;;;;;;5016061;28;20022;-78
2023/07/20 07:56:36;;;;;;;3.50;2.00;;;;;;;;;;5033435;28;20025;-78
2023/07/20 07:59:02;;;;;;;3.88;2.00;;;;;;;;;;5032158;28;20014;-78
2023/07/20 08:01:28;;;;;;;4.93;2.33;;;;;;;;;;5033855;28;20017;-79
2023/07/20 08:03:53;;;;;;;4.05;2.28;;;;;;;;;;5034170;28;20040;-77
2023/07/20 08:06:18;;;;;;;3.53;2.45;;;;;;;;;;5034045;28;20021;-79
2023/07/20 08:08:44;;;;;;;3.72;2.10;;;;;;;;;;5035962;28;20025;-79
2023/07/20 08:11:09;;;;;;;4.65;1.80;;;;;;;;;;5038292;28;20101;-79
2023/07/20 08:13:35;;;;;;;6.28;1.95;;;;;;;;;;5037368;28;20033;-78
2023/07/20 08:16:02;;;;;;;7.90;2.33;;;;;;;;;;5019855;28;20032;-79
2023/07/20 08:18:27;;;;;;;4.93;1.95;;;;;;;;;;5020273;28;20036;-79
2023/07/20 08:20:52;;;;;;;2.78;2.15;;;;;;;;;;5020084;28;20108;-79
2023/07/20 08:23:19;;;;;;;2.78;2.10;;;;;;;;;;5020138;28;20396;-78
2023/07/20 08:25:44;;;;;;;4.45;2.28;;;;;;;;;;5037302;28;20060;-79
2023/07/20 08:28:15;;;;;;;8.43;3.63;;;;;;;;;;5036170;28;20014;-80
2023/07/20 08:30:48;;;;;;;2.60;2.00;;;;;;;;;;5034811;28;20075;-77
2023/07/20 08:33:15;;;;;;;6.07;2.20;;;;;;;;;;5019609;28;20132;-77
2023/07/20 08:35:40;;;;;;;3.58;2.10;;;;;;;;;;5020148;28;20074;-79
2023/07/20 08:38:07;;;;;;;2.55;2.08;;;;;;;;;;5036017;28;20034;-80
2023/07/20 08:40:33;;;;;;;10.02;2.00;;;;;;;;;;5037730;28;20791;-79
2023/07/20 08:43:02;;;;;;;7.30;2.03;;;;;;;;;;5018825;28;20026;-79
2023/07/20 08:45:31;;;;;;;4.28;1.90;;;;;;;;;;5038081;28;20051;-80
2023/07/20 08:47:59;;;;;;;3.30;2.25;;;;;;;;;;5019287;28;20374;-79
2023/07/20 08:50:29;;;;;;;5.63;2.35;;;;;;;;;;5037124;28;20079;-79
2023/07/20 08:52:58;;;;;;;2.63;1.92;;;;;;;;;;5033598;28;20039;-78
2023/07/20 08:55:24;;;;;;;8.27;2.13;;;;;;;;;;5006946;28;20057;-79
2023/07/20 08:57:56;;;;;;;5.28;2.10;;;;;;;;;;5013675;28;20371;-79
2023/07/20 09:00:23;;;;;;;3.20;2.42;;;;;;;;;;5009599;28;20036;-76
2023/07/20 09:02:53;;;;;;;6.45;2.00;;;;;;;;;;5031865;28;20025;-77
2023/07/20 09:05:20;;;;;;;2.85;2.05;;;;;;;;;;5034840;28;20608;-78
2023/07/20 09:07:45;;;;;;;4.13;2.05;;;;;;;;;;5035731;28;20022;-77
2023/07/20 09:10:12;;;;;;;3.72;1.85;;;;;;;;;;5017656;28;20017;-76
2023/07/20 09:12:39;;;;;;;4.00;1.95;;;;;;;;;;5017939;28;20044;-78
2023/07/20 09:15:06;;;;;;;3.75;2.20;;;;;;;;;;5018079;28;20040;-76
2023/07/20 09:17:31;;;;;;;4.47;2.15;;;;;;;;;;5035767;28;20033;-78
2023/07/20 09:19:57;;;;;;;5.45;2.10;;;;;;;;;;5035073;28;20524;-81
2023/07/20 09:22:29;;;;;;;4.75;2.25;;;;;;;;;;5017388;28;20117;-77
2023/07/20 09:24:55;;;;;;;2.97;1.85;;;;;;;;;;5035739;28;20025;-77
2023/07/20 09:27:20;;;;;;;2.13;1.92;;;;;;;;;;5035450;28;20061;-79
2023/07/20 09:29:52;;;;;;;2.60;2.00;;;;;;;;;;5034944;28;20052;-77
2023/07/20 09:32:21;;;;;;;3.95;2.33;;;;;;;;;;5018464;28;20025;-77
2023/07/20 09:34:47;;;;;;;3.55;1.98;;;;;;;;;;5035586;28;20049;-79
2023/07/20 09:37:13;;;;;;;3.20;2.05;;;;;;;;;;5035860;28;20017;-77
2023/07/20 09:39:45;;;;;;;5.07;2.17;;;;;;;;;;5035414;28;20021;-77
2023/07/20 09:42:14;;;;;;;5.50;2.17;;;;;;;;;;5034859;28;20025;-77
2023/07/20 09:44:43;;;;;;;2.42;1.85;;;;;;;;;;5017036;28;20022;-77
2023/07/20 09:47:08;;;;;;;3.38;1.65;;;;;;;;;;5036206;28;20036;-80
2023/07/20 09:49:39;;;;;;;3.90;1.92;;;;;;;;;;5020972;28;20445;-78
2023/07/20 09:52:05;;;;;;;9.90;2.17;;;;;;;;;;5018339;28;20025;-78
2023/07/20 09:54:32;;;;;;;6.55;2.30;;;;;;;;;;5024267;28;20101;-77
2023/07/20 09:56:58;;;;;;;4.22;2.20;;;;;;;;;;5008766;28;20024;-77
2023/07/20 09:59:23;;;;;;;2.92;1.90;;;;;;;;;;5014186;28;20093;-78
2023/07/20 10:01:49;;;;;;;3.65;1.90;;;;;;;;;;5020156;28;20112;-77
2023/07/20 10:04:17;;;;;;;2.58;1.60;;;;;;;;;;5013130;28;21181;-78
2023/07/20 10:06:46;;;;;;;2.67;1.77;;;;;;;;;;4995835;28;20045;-78
2023/07/20 10:09:14;;;;;;;3.38;1.73;;;;;;;;;;5015191;28;20544;-78
2023/07/20 10:11:50;;;;;;;9.85;1.80;;;;;;;;;;5019564;28;20034;-77
2023/07/20 10:14:20;;;;;;;2.80;1.90;;;;;;;;;;5023429;28;20116;-77
2023/07/20 10:16:55;;;;;;;3.17;1.77;;;;;;;;;;5021412;28;20504;-78
2023/07/20 10:19:39;;;;;;;3.53;1.88;;;;;;;;;;5024208;28;20026;-78
2023/07/20 10:22:10;;;;;;;4.82;1.83;;;;;;;;;;5019998;28;20030;-78
2023/07/20 10:24:36;;;;;;;4.97;2.05;;;;;;;;;;5022739;28;20107;-77
2023/07/20 10:27:02;;;;;;;3.63;1.88;;;;;;;;;;5020032;28;20033;-78
2023/07/20 10:29:29;;;;;;;2.72;2.17;;;;;;;;;;5018952;28;20022;-77
2023/07/20 10:31:55;;;;;;;1.70;1.60;;;;;;;;;;5022572;28;20379;-78
2023/07/20 10:34:22;;;;;;;3.35;1.98;;;;;;;;;;5023422;28;20030;-78
2023/07/20 10:36:51;;;;;;;6.00;2.05;;;;;;;;;;5021041;28;20124;-77
2023/07/20 10:39:27;;;;;;;3.40;1.55;;;;;;;;;;5024820;28;20029;-77
2023/07/20 10:42:03;;;;;;;3.10;1.77;;;;;;;;;;5018815;28;20490;-78
2023/07/20 10:44:28;;;;;;;2.60;2.00;;;;;;;;;;5021778;28;20025;-78
2023/07/20 10:47:02;;;;;;;9.30;2.28;;;;;;;;;;5018008;28;20042;-77
2023/07/20 10:49:28;;;;;;;2.30;1.80;;;;;;;;;;5005934;28;20481;-77
2023/07/20 10:52:01;;;;;;;2.03;1.83;;;;;;;;;;5022198;28;20024;-77
2023/07/20 10:54:26;;;;;;;4.90;2.10;;;;;;;;;;5016648;28;20025;-77
2023/07/20 10:56:51;;;;;;;2.40;1.70;;;;;;;;;;5009350;28;20037;-77
2023/07/20 10:59:40;;;;;;;3.00;1.80;;;;;;;;;;5003318;28;20036;-77
2023/07/20 11:02:09;;;;;;;1.95;1.83;;;;;;;;;;5015462;28;20113;-77
2023/07/20 11:04:45;;;;;;;3.03;1.60;;;;;;;;;;5015782;28;20037;-77
2023/07/20 11:07:18;;;;;;;8.50;1.80;;;;;;;;;;5013518;28;20044;-77
2023/07/20 11:09:43;;;;;;;3.78;2.38;;;;;;;;;;5004552;28;20037;-77
2023/07/20 11:12:18;;;;;;;3.33;1.80;;;;;;;;;;5018613;28;20217;-77
2023/07/20 11:14:54;;;;;;;2.45;1.80;;;;;;;;;;5039008;23;20045;-81
2023/07/20 11:17:22;;;;;;;3.05;1.67;;;;;;;;;;5020480;28;20029;-81
2023/07/20 11:19:49;;;;;;;4.55;1.90;;;;;;;;;;5020071;28;20025;-81
2023/07/20 11:22:17;;;;;;;2.53;1.70;;;;;;;;;;5023186;28;20488;-80
2023/07/20 11:24:42;;;;;;;5.60;2.08;;;;;;;;;;5021105;28;20032;-81
2023/07/20 11:27:08;;;;;;;2.05;1.77;;;;;;;;;;5027651;28;20351;-81
2023/07/20 11:29:35;;;;;;;2.92;2.00;;;;;;;;;;5021213;28;20480;-80
2023/07/20 11:32:02;;;;;;;4.90;1.88;;;;;;;;;;5022956;28;20037;-81
2023/07/20 11:34:31;;;;;;;3.60;1.88;;;;;;;;;;5016498;28;20017;-81
2023/07/20 11:36:56;;;;;;;2.45;1.70;;;;;;;;;;5023148;28;20283;-80
2023/07/20 11:39:22;;;;;;;8.55;2.35;;;;;;;;;;5023351;28;20034;-80
2023/07/20 11:41:50;;;;;;;3.00;1.90;;;;;;;;;;5030384;28;20045;-81
2023/07/20 11:44:17;;;;;;;2.55;1.80;;;;;;;;;;5026282;28;20069;-82
2023/07/20 11:46:43;;;;;;;3.90;1.77;;;;;;;;;;5032305;28;20392;-82
2023/07/20 11:49:08;;;;;;;2.05;1.85;;;;;;;;;;5032596;28;20017;-81
2023/07/20 11:51:34;;;;;;;3.28;1.80;;;;;;;;;;5030397;28;20026;-80
2023/07/20 11:54:01;;;;;;;5.35;1.98;;;;;;;;;;5034102;28;20042;-81
2023/07/20 11:56:26;;;;;;;3.35;2.38;;;;;;;;;;5027380;28;20029;-80
2023/07/20 11:58:59;;;;;;;4.57;2.17;;;;;;;;;;5026499;28;20038;-80
2023/07/20 12:01:25;;;;;;;6.05;2.17;;;;;;;;;;5031721;28;20091;-80
2023/07/20 12:03:51;;;;;;;3.17;2.25;;;;;;;;;;5029869;28;20379;-81
2023/07/20 12:06:17;;;;;;;2.80;1.90;;;;;;;;;;5025869;28;20506;-81
2023/07/20 12:08:44;;;;;;;3.28;1.80;;;;;;;;;;5026633;28;20037;-80
2023/07/20 12:11:09;;;;;;;7.15;2.13;;;;;;;;;;5024561;28;20034;-81
2023/07/20 12:13:44;;;;;;;2.90;1.88;;;;;;;;;;5032369;28;20405;-80
2023/07/20 12:16:12;;;;;;;6.20;1.80;;;;;;;;;;5020979;28;20030;-79
2023/07/20 12:18:37;;;;;;;25.48;2.40;;;;;;;;;;5028578;28;20333;-80
2023/07/20 12:21:04;;;;;;;4.63;2.00;;;;;;;;;;5032893;28;20025;-80
2023/07/20 12:23:36;;;;;;;2.55;2.10;;;;;;;;;;5027124;28;20026;-80
2023/07/20 12:26:01;;;;;;;3.28;1.92;;;;;;;;;;5024857;28;20041;-80
2023/07/20 12:28:26;;;;;;;2.10;1.80;;;;;;;;;;5026878;28;20521;-82
2023/07/20 12:30:56;;;;;;;4.05;2.25;;;;;;;;;;5023319;28;20600;-78
2023/07/20 12:33:22;;;;;;;3.20;2.13;;;;;;;;;;5047843;28;20013;-81
2023/07/20 12:35:48;;;;;;;3.30;1.80;;;;;;;;;;5037847;28;20528;-81
2023/07/20 12:38:13;;;;;;;4.10;2.40;;;;;;;;;;5024093;28;20038;-81
2023/07/20 12:40:38;;;;;;;5.25;2.20;;;;;;;;;;5019739;28;20046;-81
2023/07/20 12:43:04;;;;;;;2.78;2.00;;;;;;;;;;5023175;28;20042;-81
2023/07/20 12:45:30;;;;;;;4.95;2.08;;;;;;;;;;5025156;28;20034;-82
2023/07/20 12:47:55;;;;;;;4.05;2.13;;;;;;;;;;5026323;28;20102;-82
2023/07/20 12:50:20;;;;;;;5.72;1.90;;;;;;;;;;5030522;28;20313;-81
2023/07/20 12:52:45;;;;;;;8.13;2.33;;;;;;;;;;5018272;28;20031;-81
2023/07/20 12:55:11;;;;;;;2.53;2.08;;;;;;;;;;5025905;28;20041;-81
2023/07/20 12:57:37;;;;;;;3.65;1.75;;;;;;;;;;5024069;28;20045;-81
2023/07/20 13:00:04;;;;;;;3.95;2.20;;;;;;;;;;5022009;28;20069;-80
2023/07/20 13:02:32;;;;;;;3.15;2.15;;;;;;;;;;5025062;28;20148;-81
2023/07/20 13:04:57;;;;;;;2.88;2.00;;;;;;;;;;5035964;28;20524;-79
2023/07/20 13:07:33;;;;;;;2.60;2.05;;;;;;;;;;5029989;28;20106;-81
2023/07/20 13:10:00;;;;;;;2.30;2.03;;;;;;;;;;5031802;28;20053;-81
2023/07/20 13:12:26;;;;;;;4.22;2.30;;;;;;;;;;5034381;28;20505;-81
2023/07/20 13:14:52;;;;;;;3.33;2.30;;;;;;;;;;5032039;28;20092;-80
2023/07/20 13:17:17;;;;;;;2.67;2.00;;;;;;;;;;5040362;28;20064;-83
2023/07/20 13:19:46;;;;;;;2.90;2.22;;;;;;;;;;5030235;28;20033;-80
2023/07/20 13:22:11;;;;;;;4.85;2.13;;;;;;;;;;5022633;28;20030;-81
2023/07/20 13:24:36;;;;;;;3.03;2.00;;;;;;;;;;5030956;28;20053;-81
2023/07/20 13:27:02;;;;;;;1.65;1.55;;;;;;;;;;5028285;28;20032;-83
2023/07/20 13:29:27;;;;;;;2.45;2.00;;;;;;;;;;5028678;28;20053;-80
2023/07/20 13:31:53;;;;;;;1.95;1.85;;;;;;;;;;5026082;28;20524;-81
2023/07/20 13:34:18;;;;;;;6.45;2.30;;;;;;;;;;5025195;28;20041;-80
2023/07/20 13:36:43;;;;;;;4.78;2.17;;;;;;;;;;5027154;28;20314;-80
2023/07/20 13:39:09;;;;;;;4.47;2.10;;;;;;;;;;5021493;28;20068;-81
2023/07/20 13:41:34;;;;;;;4.32;2.20;;;;;;;;;;5017325;28;20037;-80
2023/07/20 13:43:59;;;;;;;2.55;2.00;;;;;;;;;;5036595;28;20054;-82
2023/07/20 13:46:25;;;;;;;5.85;2.17;;;;;;;;;;5015764;28;20045;-79
2023/07/20 13:48:50;;;;;;;5.82;2.15;;;;;;;;;;5020537;28;20042;-81
2023/07/20 13:51:16;;;;;;;2.00;1.90;;;;;;;;;;5021324;28;20025;-81
2023/07/20 13:53:41;;;;;;;4.20;2.53;;;;;;;;;;5019255;28;20031;-81
2023/07/20 13:56:06;;;;;;;3.35;2.20;;;;;;;;;;5015760;28;20046;-81
2023/07/20 13:58:32;;;;;;;5.13;2.28;;;;;;;;;;5019048;28;20449;-81
2023/07/20 14:00:58;;;;;;;2.67;2.00;;;;;;;;;;5018469;28;20069;-79
2023/07/20 14:03:23;;;;;;;4.45;2.40;;;;;;;;;;5019159;28;20046;-84
2023/07/20 14:05:50;;;;;;;2.88;2.20;;;;;;;;;;5024516;28;20355;-84
2023/07/20 14:08:15;;;;;;;2.47;2.20;;;;;;;;;;5023329;28;20057;-84
2023/07/20 14:10:40;;;;;;;9.13;2.83;;;;;;;;;;5021150;28;20034;-83
2023/07/20 14:13:05;;;;;;;8.75;2.78;;;;;;;;;;5004848;28;20050;-81
2023/07/20 14:15:31;;;;;;;3.58;2.08;;;;;;;;;;5025031;28;20479;-84
2023/07/20 14:17:56;;;;;;;32.53;3.20;;;;;;;;;;5019107;28;20021;-84
2023/07/20 14:20:21;;;;;;;9.43;2.40;;;;;;;;;;5018817;28;20037;-85
2023/07/20 14:22:48;;;;;;;10.93;2.53;;;;;;;;;;5032684;28;20037;-85
2023/07/20 14:25:13;;;;;;;4.28;2.08;;;;;;;;;;5019110;28;20097;-83
2023/07/20 14:27:39;;;;;;;2.42;2.13;;;;;;;;;;5022729;28;20052;-81
2023/07/20 14:30:05;;;;;;;2.45;2.17;;;;;;;;;;5019583;28;20036;-81
2023/07/20 14:32:32;;;;;;;2.88;2.30;;;;;;;;;;5024639;28;20029;-81
2023/07/20 14:34:58;;;;;;;2.28;2.03;;;;;;;;;;5019531;28;20095;-84
2023/07/20 14:37:23;;;;;;;4.35;2.28;;;;;;;;;;5024590;28;20117;-83
2023/07/20 14:39:48;;;;;;;2.08;1.98;;;;;;;;;;5022939;28;20045;-84